Weather at Hamilton Municipal Airport

Public forecast

Using degrees Fahrenheit for public forecast. Weather courtesy of forecast.io.

Current aviation weather report (METAR) for Hamilton Municipal Airport

Retrieved 2020/09/21 02:35 UTC (0 seconds ago):

KMNZ 210235Z AUTO 03005KT 10SM CLR 21/14 A3012 RMK AO2 T02100137

Closest aviation forecast (TAF) to Hamilton Municipal Airport

Closest forecast is Robert Gray Army Air Field Airport, 39.5 nm (73.2 km) SSE. Retrieved 2020-09-21 00:19 UTC (2 hours ago):

TAF KGRK 210000Z 2100/2206 04009KT 9999 BKN040 QNH3002INS BECMG 2103/2104 02012KT 8000 -SHRA OVC030 QNH2998INS BECMG 2205/2206 VRB06KT 6000 -SHRA OVC030 510393 QNH2993INS TX26/2101Z TN17/2102Z